Time;durP1;ratioP1;P1;durP2;ratioP2;P2;SDS_P1;SDS_P2;PMS_P1;PMS_P2;Temp;Humidity;BMP_temperature;BMP_pressure;BME280_temperature;BME280_humidity;BME280_pressure;Samples;Min_cycle;Max_cycle;Signal;HPM_P1;HPM_P2
2021/12/04 00:00:23;;;;;;;;;;;;;;;;;;5062074;28;1211;-79
2021/12/04 00:02:49;;;;;;;;;;;;;;;;;;5097828;28;1242;-79
2021/12/04 00:05:15;;;;;;;;;;;;;;;;;;5082632;28;1175;-78
2021/12/04 00:07:40;;;;;;;;;;;;;;;;;;5086164;28;1170;-78
2021/12/04 00:10:06;;;;;;;;;;;;;;;;;;5078044;28;1277;-78
2021/12/04 00:12:33;;;;;;;;;;;;;;;;;;5078950;28;1878;-78
2021/12/04 00:14:59;;;;;;;;;;;;;;;;;;5095837;28;1139;-79
2021/12/04 00:17:24;;;;;;;;;;;;;;;;;;5091119;28;1156;-78
2021/12/04 00:19:50;;;;;;;;;;;;;;;;;;5060349;28;1347;-78
2021/12/04 00:22:15;;;;;;;;;;;;;;;;;;5087051;28;1175;-79
2021/12/04 00:24:41;;;;;;;;;;;;;;;;;;5071062;28;1268;-79
2021/12/04 00:27:07;;;;;;;;;;;;;;;;;;5063855;28;1248;-78
2021/12/04 00:29:32;;;;;;;;;;;;;;;;;;5091260;28;1072;-78
2021/12/04 00:34:55;;;;;;;;;;;;;;;;;;5044895;28;1273;-80
2021/12/04 00:37:47;;;;;;;;;;;;;;;;;;5072452;28;1095;-78
2021/12/04 00:43:21;;;;;;;;;;;;;;;;;;5066054;28;1040;-77
2021/12/04 00:51:15;;;;;;;;;;;;;;;;;;5101548;28;1913;-79
2021/12/04 00:53:40;;;;;;;;;;;;;;;;;;5077225;28;1270;-79
2021/12/04 00:56:05;;;;;;;;;;;;;;;;;;5080271;28;1463;-78
2021/12/04 00:58:31;;;;;;;;;;;;;;;;;;5084572;28;1196;-78
2021/12/04 01:00:56;;;;;;;;;;;;;;;;;;5085746;28;1203;-79
2021/12/04 01:03:22;;;;;;;;;;;;;;;;;;5066165;28;1187;-79
2021/12/04 01:05:47;;;;;;;;;;;;;;;;;;5082525;28;1091;-79
2021/12/04 01:08:13;;;;;;;;;;;;;;;;;;5074255;28;1295;-78
2021/12/04 01:10:38;;;;;;;;;;;;;;;;;;5053942;28;1902;-78
2021/12/04 01:13:10;;;;;;;;;;;;;;;;;;5054562;28;1294;-79
2021/12/04 01:15:36;;;;;;;;;;;;;;;;;;5045547;28;1343;-78
2021/12/04 01:18:01;;;;;;;;;;;;;;;;;;5089264;28;1211;-78
2021/12/04 01:20:26;;;;;;;;;;;;;;;;;;5045021;28;1183;-78
2021/12/04 01:22:52;;;;;;;;;;;;;;;;;;5079379;28;1172;-78
2021/12/04 01:25:18;;;;;;;;;;;;;;;;;;5056676;28;1348;-78
2021/12/04 01:27:45;;;;;;;;;;;;;;;;;;5069612;28;1354;-78
2021/12/04 01:30:11;;;;;;;;;;;;;;;;;;5078478;28;1889;-78
2021/12/04 01:32:36;;;;;;;;;;;;;;;;;;5103272;28;1300;-78
2021/12/04 01:35:01;;;;;;;;;;;;;;;;;;5073606;28;1120;-79
2021/12/04 01:37:26;;;;;;;;;;;;;;;;;;5066406;28;1164;-78
2021/12/04 01:39:52;;;;;;;;;;;;;;;;;;5097828;28;1136;-78
2021/12/04 01:42:20;;;;;;;;;;;;;;;;;;5083695;28;1273;-79
2021/12/04 01:44:47;;;;;;;;;;;;;;;;;;5066249;28;1203;-79
2021/12/04 01:47:14;;;;;;;;;;;;;;;;;;5077121;28;1343;-79
2021/12/04 01:49:39;;;;;;;;;;;;;;;;;;5085559;28;1206;-79
2021/12/04 01:52:05;;;;;;;;;;;;;;;;;;5102499;28;1961;-79
2021/12/04 01:54:30;;;;;;;;;;;;;;;;;;5081020;28;1152;-79
2021/12/04 01:56:56;;;;;;;;;;;;;;;;;;5049479;28;1297;-80
2021/12/04 01:59:21;;;;;;;;;;;;;;;;;;5065919;28;1246;-79
2021/12/04 02:01:47;;;;;;;;;;;;;;;;;;5088104;28;1136;-78
2021/12/04 02:04:12;;;;;;;;;;;;;;;;;;5102643;28;1151;-79
2021/12/04 02:06:38;;;;;;;;;;;;;;;;;;5078828;28;1211;-78
2021/12/04 02:09:03;;;;;;;;;;;;;;;;;;5044833;28;1556;-78
2021/12/04 02:11:28;;;;;;;;;;;;;;;;;;5095171;28;1931;-79
2021/12/04 02:13:54;;;;;;;;;;;;;;;;;;5078863;28;1175;-79
2021/12/04 02:16:20;;;;;;;;;;;;;;;;;;5068407;28;1215;-79
2021/12/04 02:18:46;;;;;;;;;;;;;;;;;;5085915;28;1396;-79
2021/12/04 02:21:11;;;;;;;;;;;;;;;;;;5076137;28;1042;-78
2021/12/04 02:23:37;;;;;;;;;;;;;;;;;;5079760;28;1299;-78
2021/12/04 02:26:02;;;;;;;;;;;;;;;;;;5070425;28;1411;-78
2021/12/04 02:28:28;;;;;;;;;;;;;;;;;;5088597;28;1223;-79
2021/12/04 02:30:53;;;;;;;;;;;;;;;;;;5064997;28;1943;-78
2021/12/04 02:33:20;;;;;;;;;;;;;;;;;;5069433;28;1383;-79
2021/12/04 02:35:48;;;;;;;;;;;;;;;;;;5083802;28;1274;-79
2021/12/04 02:38:14;;;;;;;;;;;;;;;;;;5063822;28;1275;-79
2021/12/04 02:40:42;;;;;;;;;;;;;;;;;;5072320;28;1278;-79
2021/12/04 02:43:10;;;;;;;;;;;;;;;;;;5072355;28;1413;-79
2021/12/04 02:45:35;;;;;;;;;;;;;;;;;;5061209;28;1242;-79
2021/12/04 02:48:01;;;;;;;;;;;;;;;;;;5072358;28;1359;-79
2021/12/04 02:50:26;;;;;;;;;;;;;;;;;;5079990;28;1931;-79
2021/12/04 02:52:52;;;;;;;;;;;;;;;;;;5086105;28;1208;-79
2021/12/04 02:55:18;;;;;;;;;;;;;;;;;;5078324;28;1413;-79
2021/12/04 02:57:44;;;;;;;;;;;;;;;;;;5072757;28;1159;-79
2021/12/04 03:00:14;;;;;;;;;;;;;;;;;;5072526;28;1029;-79
2021/12/04 03:02:40;;;;;;;;;;;;;;;;;;5086160;28;1295;-79
2021/12/04 03:05:08;;;;;;;;;;;;;;;;;;5071105;28;1226;-79
2021/12/04 03:07:33;;;;;;;;;;;;;;;;;;5084519;28;1197;-79
2021/12/04 03:09:58;;;;;;;;;;;;;;;;;;5080067;28;1382;-78
2021/12/04 03:12:24;;;;;;;;;;;;;;;;;;5063052;28;1882;-78
2021/12/04 03:14:51;;;;;;;;;;;;;;;;;;5058986;28;1288;-79
2021/12/04 03:17:19;;;;;;;;;;;;;;;;;;5066492;28;1439;-78
2021/12/04 03:19:44;;;;;;;;;;;;;;;;;;5073076;28;1347;-79
2021/12/04 03:22:10;;;;;;;;;;;;;;;;;;5069434;28;1092;-78
2021/12/04 03:24:39;;;;;;;;;;;;;;;;;;5077587;28;1264;-79
2021/12/04 03:27:04;;;;;;;;;;;;;;;;;;5064324;28;1298;-79
2021/12/04 03:29:32;;;;;;;;;;;;;;;;;;5078346;28;1247;-78
2021/12/04 03:32:19;;;;;;;;;;;;;;;;;;5075750;28;1953;-78
2021/12/04 03:42:57;;;;;;;;;;;;;;;;;;5065532;28;1012;-78
2021/12/04 03:45:22;;;;;;;;;;;;;;;;;;5038962;28;1259;-78
2021/12/04 03:47:49;;;;;;;;;;;;;;;;;;5060412;28;1385;-79
2021/12/04 03:50:14;;;;;;;;;;;;;;;;;;5042868;28;1199;-78
2021/12/04 03:52:40;;;;;;;;;;;;;;;;;;5066879;28;1902;-78
2021/12/04 03:55:06;;;;;;;;;;;;;;;;;;5073092;28;1227;-80
2021/12/04 03:57:32;;;;;;;;;;;;;;;;;;5064461;28;1168;-79
2021/12/04 03:59:59;;;;;;;;;;;;;;;;;;5062373;28;1219;-77
2021/12/04 04:02:25;;;;;;;;;;;;;;;;;;5062489;28;1210;-78
2021/12/04 04:04:50;;;;;;;;;;;;;;;;;;5045761;28;1227;-78
2021/12/04 04:07:16;;;;;;;;;;;;;;;;;;5062782;28;1257;-78
2021/12/04 04:09:42;;;;;;;;;;;;;;;;;;5080115;28;1073;-77
2021/12/04 04:12:08;;;;;;;;;;;;;;;;;;5071766;28;1886;-78
2021/12/04 04:14:34;;;;;;;;;;;;;;;;;;5078461;28;1233;-79
2021/12/04 04:17:00;;;;;;;;;;;;;;;;;;5051349;28;1194;-79
2021/12/04 04:19:26;;;;;;;;;;;;;;;;;;5065411;28;1404;-78
2021/12/04 04:21:56;;;;;;;;;;;;;;;;;;5082740;28;1313;-77
2021/12/04 04:24:21;;;;;;;;;;;;;;;;;;5076409;28;1337;-79
2021/12/04 04:26:47;;;;;;;;;;;;;;;;;;5060836;28;1679;-79
2021/12/04 04:29:13;;;;;;;;;;;;;;;;;;5076967;28;1167;-77
2021/12/04 04:31:48;;;;;;;;;;;;;;;;;;5083671;28;1894;-78
2021/12/04 04:34:20;;;;;;;;;;;;;;;;;;5080060;28;1443;-78
2021/12/04 05:12:19;;;;;;;;;;;;;;;;;;5085651;28;1897;-78
2021/12/04 05:14:47;;;;;;;;;;;;;;;;;;5065426;28;1454;-77
2021/12/04 05:17:27;;;;;;;;;;;;;;;;;;5071124;28;1337;-78
2021/12/04 05:19:54;;;;;;;;;;;;;;;;;;5057347;28;1311;-77
2021/12/04 05:22:19;;;;;;;;;;;;;;;;;;5084102;28;1031;-77
2021/12/04 05:24:44;;;;;;;;;;;;;;;;;;5084405;28;1211;-78
2021/12/04 05:27:10;;;;;;;;;;;;;;;;;;5060626;28;1313;-78
2021/12/04 05:29:35;;;;;;;;;;;;;;;;;;5051992;28;1184;-78
2021/12/04 05:32:01;;;;;;;;;;;;;;;;;;5053520;28;1890;-78
2021/12/04 05:34:27;;;;;;;;;;;;;;;;;;5055328;28;1252;-78
2021/12/04 05:36:52;;;;;;;;;;;;;;;;;;5080528;28;1108;-78
2021/12/04 05:39:17;;;;;;;;;;;;;;;;;;5062850;28;1156;-77
2021/12/04 05:41:43;;;;;;;;;;;;;;;;;;5076329;28;1355;-78
2021/12/04 05:44:09;;;;;;;;;;;;;;;;;;5071366;28;1174;-78
2021/12/04 05:46:42;;;;;;;;;;;;;;;;;;5061450;28;1192;-78
2021/12/04 05:49:15;;;;;;;;;;;;;;;;;;5047589;28;1188;-79
2021/12/04 05:52:02;;;;;;;;;;;;;;;;;;5084475;28;1977;-78
2021/12/04 05:54:43;;;;;;;;;;;;;;;;;;5058723;28;1389;-78
2021/12/04 05:57:09;;;;;;;;;;;;;;;;;;5085515;28;1238;-79
2021/12/04 05:59:35;;;;;;;;;;;;;;;;;;5077420;28;1144;-78
2021/12/04 06:02:01;;;;;;;;;;;;;;;;;;5046562;28;1359;-78
2021/12/04 06:04:26;;;;;;;;;;;;;;;;;;5079303;28;1068;-78
2021/12/04 06:06:52;;;;;;;;;;;;;;;;;;5070807;28;1324;-78
2021/12/04 06:09:17;;;;;;;;;;;;;;;;;;5098300;28;1163;-78
2021/12/04 06:11:43;;;;;;;;;;;;;;;;;;5054924;28;1893;-77
2021/12/04 06:14:08;;;;;;;;;;;;;;;;;;5063526;28;1257;-78
2021/12/04 06:16:34;;;;;;;;;;;;;;;;;;5064023;28;1144;-78
2021/12/04 06:19:09;;;;;;;;;;;;;;;;;;5080674;28;1210;-79
2021/12/04 06:24:19;;;;;;;;;;;;;;;;;;5075609;28;1063;-78
2021/12/04 06:26:44;;;;;;;;;;;;;;;;;;5064326;28;1226;-79
2021/12/04 06:29:09;;;;;;;;;;;;;;;;;;5080919;28;1108;-79
2021/12/04 06:31:35;;;;;;;;;;;;;;;;;;5063907;28;1898;-78
2021/12/04 06:34:00;;;;;;;;;;;;;;;;;;5106618;28;1171;-77
2021/12/04 06:36:25;;;;;;;;;;;;;;;;;;5084786;28;1172;-78
2021/12/04 06:38:52;;;;;;;;;;;;;;;;;;5088508;28;1227;-77
2021/12/04 06:41:17;;;;;;;;;;;;;;;;;;5085216;28;1296;-75
2021/12/04 06:43:48;;;;;;;;;;;;;;;;;;5054871;28;1282;-77
2021/12/04 06:46:14;;;;;;;;;;;;;;;;;;5052283;28;1137;-78
2021/12/04 06:49:15;;;;;;;;;;;;;;;;;;5103896;28;1131;-78
2021/12/04 06:51:40;;;;;;;;;;;;;;;;;;5099371;28;1909;-77
2021/12/04 06:54:15;;;;;;;;;;;;;;;;;;5100746;28;1011;-79
2021/12/04 06:56:43;;;;;;;;;;;;;;;;;;5063845;28;1369;-78
2021/12/04 06:59:11;;;;;;;;;;;;;;;;;;5098887;28;1183;-78
2021/12/04 07:01:37;;;;;;;;;;;;;;;;;;5085483;28;1457;-78
2021/12/04 07:04:03;;;;;;;;;;;;;;;;;;5094757;28;1207;-78
2021/12/04 07:06:28;;;;;;;;;;;;;;;;;;5081737;28;1219;-78
2021/12/04 07:08:54;;;;;;;;;;;;;;;;;;5079762;28;1227;-79
2021/12/04 07:11:21;;;;;;;;;;;;;;;;;;5098370;28;1893;-78
2021/12/04 07:13:47;;;;;;;;;;;;;;;;;;5081742;28;1329;-78
2021/12/04 07:16:16;;;;;;;;;;;;;;;;;;5052331;28;1231;-79
2021/12/04 07:18:41;;;;;;;;;;;;;;;;;;5066143;28;1400;-79
2021/12/04 07:21:06;;;;;;;;;;;;;;;;;;5067091;28;1329;-78
2021/12/04 07:23:32;;;;;;;;;;;;;;;;;;5084300;28;1192;-78
2021/12/04 07:25:57;;;;;;;;;;;;;;;;;;5084526;28;1097;-78
2021/12/04 07:28:23;;;;;;;;;;;;;;;;;;5105972;28;1163;-79
2021/12/04 07:30:52;;;;;;;;;;;;;;;;;;5074356;28;1939;-77
2021/12/04 07:33:17;;;;;;;;;;;;;;;;;;5082792;28;1191;-78
2021/12/04 07:35:42;;;;;;;;;;;;;;;;;;5101768;28;1100;-78
2021/12/04 07:38:10;;;;;;;;;;;;;;;;;;5103312;28;1131;-78
2021/12/04 07:40:36;;;;;;;;;;;;;;;;;;5043240;28;1202;-78
2021/12/04 07:43:01;;;;;;;;;;;;;;;;;;5078881;28;1246;-78
2021/12/04 07:45:26;;;;;;;;;;;;;;;;;;5064774;28;1208;-76
2021/12/04 07:47:52;;;;;;;;;;;;;;;;;;5068064;28;1227;-76
2021/12/04 07:50:17;;;;;;;;;;;;;;;;;;5100742;28;1353;-75
2021/12/04 07:52:43;;;;;;;;;;;;;;;;;;5084178;28;1941;-76
2021/12/04 07:55:09;;;;;;;;;;;;;;;;;;5060799;28;1179;-76
2021/12/04 07:57:34;;;;;;;;;;;;;;;;;;5069578;28;1065;-74
2021/12/04 08:00:00;;;;;;;;;;;;;;;;;;5097681;28;1219;-76
2021/12/04 08:02:26;;;;;;;;;;;;;;;;;;5067097;28;1348;-74
2021/12/04 08:04:52;;;;;;;;;;;;;;;;;;5065358;28;1282;-75
2021/12/04 08:07:17;;;;;;;;;;;;;;;;;;5069204;28;1567;-75
2021/12/04 08:09:43;;;;;;;;;;;;;;;;;;5077059;28;1319;-75
2021/12/04 08:12:10;;;;;;;;;;;;;;;;;;5069040;28;1886;-76
2021/12/04 08:14:36;;;;;;;;;;;;;;;;;;5084382;28;1211;-76
2021/12/04 08:17:01;;;;;;;;;;;;;;;;;;5066787;28;1430;-76
2021/12/04 08:19:27;;;;;;;;;;;;;;;;;;5099045;28;1210;-76
2021/12/04 08:21:52;;;;;;;;;;;;;;;;;;5067826;28;1266;-75
2021/12/04 08:24:18;;;;;;;;;;;;;;;;;;5083926;28;1402;-76
2021/12/04 08:26:44;;;;;;;;;;;;;;;;;;5111795;27;1273;-75
2021/12/04 08:29:09;;;;;;;;;;;;;;;;;;5078950;28;1072;-75
2021/12/04 08:31:35;;;;;;;;;;;;;;;;;;5057479;28;1917;-77
2021/12/04 08:34:00;;;;;;;;;;;;;;;;;;5096186;28;1195;-77
2021/12/04 08:36:26;;;;;;;;;;;;;;;;;;5083058;28;1231;-76
2021/12/04 08:38:51;;;;;;;;;;;;;;;;;;5044403;28;1176;-75
2021/12/04 08:41:18;;;;;;;;;;;;;;;;;;5045894;28;1237;-76
2021/12/04 08:43:44;;;;;;;;;;;;;;;;;;5076709;28;1038;-76
2021/12/04 08:46:10;;;;;;;;;;;;;;;;;;5082023;28;1148;-76
2021/12/04 08:48:35;;;;;;;;;;;;;;;;;;5100266;28;1136;-76
2021/12/04 08:51:01;;;;;;;;;;;;;;;;;;5100565;28;1929;-76
2021/12/04 08:53:27;;;;;;;;;;;;;;;;;;5060174;28;1210;-76
2021/12/04 08:55:53;;;;;;;;;;;;;;;;;;5057829;28;1133;-75
2021/12/04 08:58:19;;;;;;;;;;;;;;;;;;5063332;28;1180;-76
2021/12/04 09:00:49;;;;;;;;;;;;;;;;;;5074292;28;1231;-77
2021/12/04 09:03:21;;;;;;;;;;;;;;;;;;5084493;28;1273;-75
2021/12/04 09:05:47;;;;;;;;;;;;;;;;;;5079062;28;1348;-76
2021/12/04 09:08:13;;;;;;;;;;;;;;;;;;5062883;28;1190;-76
2021/12/04 09:10:43;;;;;;;;;;;;;;;;;;5056074;28;1933;-76
2021/12/04 09:13:08;;;;;;;;;;;;;;;;;;5066293;28;1531;-76
2021/12/04 09:15:35;;;;;;;;;;;;;;;;;;5072561;28;1215;-76
2021/12/04 09:18:00;;;;;;;;;;;;;;;;;;5075184;28;1533;-76
2021/12/04 09:20:28;;;;;;;;;;;;;;;;;;5102923;28;1029;-76
2021/12/04 09:22:54;;;;;;;;;;;;;;;;;;5082774;28;1176;-75
2021/12/04 09:25:25;;;;;;;;;;;;;;;;;;5095871;28;1159;-76
2021/12/04 09:31:01;;;;;;;;;;;;;;;;;;5097705;28;1086;-75
2021/12/04 10:22:37;;;;;;;;;;;;;;;;;;5072435;28;1187;-76
2021/12/04 10:33:26;;;;;;;;;;;;;;;;;;5084313;28;1001;-75
2021/12/04 10:35:53;;;;;;;;;;;;;;;;;;5062260;28;1351;-75
2021/12/04 10:38:20;;;;;;;;;;;;;;;;;;5047924;28;1417;-76
2021/12/04 10:40:48;;;;;;;;;;;;;;;;;;5085762;28;1234;-76
2021/12/04 10:43:16;;;;;;;;;;;;;;;;;;5064539;28;1199;-76
2021/12/04 10:45:44;;;;;;;;;;;;;;;;;;5061062;28;1406;-76
2021/12/04 10:48:14;;;;;;;;;;;;;;;;;;5084034;28;1132;-75
2021/12/04 10:51:26;;;;;;;;;;;;;;;;;;5063118;28;1906;-76
2021/12/04 10:53:35;;;;;;;;;;;;;;;;;;5069396;28;1195;-75
2021/12/04 11:03:53;;;;;;;;;;;;;;;;;;5113018;28;1171;-75
2021/12/04 11:38:17;;;;;;;;;;;;;;;;;;5084097;28;1024;-75
2021/12/04 11:43:25;;;;;;;;;;;;;;;;;;5086311;28;1223;-75
2021/12/04 11:48:29;;;;;;;;;;;;;;;;;;5088116;28;1175;-74
2021/12/04 11:50:54;;;;;;;;;;;;;;;;;;5074541;28;1980;-75
2021/12/04 11:53:20;;;;;;;;;;;;;;;;;;5062978;28;1397;-75
2021/12/04 11:55:47;;;;;;;;;;;;;;;;;;5057087;28;1269;-74
2021/12/04 11:58:26;;;;;;;;;;;;;;;;;;5065687;28;1164;-74
2021/12/04 12:00:55;;;;;;;;;;;;;;;;;;5060048;28;1250;-74
2021/12/04 12:03:22;;;;;;;;;;;;;;;;;;5064733;28;1353;-75
2021/12/04 12:05:53;;;;;;;;;;;;;;;;;;5059794;28;1285;-74
2021/12/04 12:08:25;;;;;;;;;;;;;;;;;;5060408;28;1183;-73
2021/12/04 12:10:53;;;;;;;;;;;;;;;;;;5056220;28;1949;-74
2021/12/04 12:13:23;;;;;;;;;;;;;;;;;;5063800;28;1097;-74
2021/12/04 12:15:57;;;;;;;;;;;;;;;;;;5074972;28;1377;-74
2021/12/04 12:18:22;;;;;;;;;;;;;;;;;;5082552;28;1362;-74
2021/12/04 12:20:55;;;;;;;;;;;;;;;;;;5077316;28;1278;-75
2021/12/04 12:23:24;;;;;;;;;;;;;;;;;;5078588;28;1087;-77
2021/12/04 12:36:28;;;;;;;;;;;;;;;;;;5062336;28;1211;-75
2021/12/04 12:38:53;;;;;;;;;;;;;;;;;;5058063;28;1172;-76
2021/12/04 12:41:30;;;;;;;;;;;;;;;;;;5058195;28;1374;-76
2021/12/04 12:43:59;;;;;;;;;;;;;;;;;;5058056;28;1218;-78
2021/12/04 12:46:34;;;;;;;;;;;;;;;;;;5061809;28;1227;-76
2021/12/04 12:48:59;;;;;;;;;;;;;;;;;;5061787;28;1240;-76
2021/12/04 12:51:26;;;;;;;;;;;;;;;;;;5060484;28;1910;-77
2021/12/04 12:53:52;;;;;;;;;;;;;;;;;;5058354;28;1176;-76
2021/12/04 12:56:20;;;;;;;;;;;;;;;;;;5062754;28;1198;-76
2021/12/04 13:12:48;;;;;;;;;;;;;;;;;;5072213;28;1890;-76
2021/12/04 13:15:15;;;;;;;;;;;;;;;;;;5066184;28;1207;-77
2021/12/04 13:17:41;;;;;;;;;;;;;;;;;;5076009;28;1147;-77
2021/12/04 13:20:07;;;;;;;;;;;;;;;;;;5078013;28;1223;-75
2021/12/04 13:22:34;;;;;;;;;;;;;;;;;;5084073;28;1179;-76
2021/12/04 13:25:02;;;;;;;;;;;;;;;;;;5070832;28;1385;-78
2021/12/04 13:29:57;;;;;;;;;;;;;;;;;;5060344;28;1357;-77
2021/12/04 13:32:32;;;;;;;;;;;;;;;;;;5076280;28;1910;-75
2021/12/04 13:35:02;;;;;;;;;;;;;;;;;;5061566;28;1063;-76
2021/12/04 13:37:29;;;;;;;;;;;;;;;;;;5082931;28;1275;-76
2021/12/04 13:39:56;;;;;;;;;;;;;;;;;;5074973;28;1092;-76
2021/12/04 13:42:21;;;;;;;;;;;;;;;;;;5086448;28;1381;-76
2021/12/04 13:44:46;;;;;;;;;;;;;;;;;;5089921;28;1218;-76
2021/12/04 13:47:12;;;;;;;;;;;;;;;;;;5082011;28;1254;-75
2021/12/04 13:49:40;;;;;;;;;;;;;;;;;;5106790;28;1167;-77
2021/12/04 13:52:12;;;;;;;;;;;;;;;;;;5089623;28;1910;-76
2021/12/04 13:54:49;;;;;;;;;;;;;;;;;;5098421;28;1183;-76
2021/12/04 13:57:14;;;;;;;;;;;;;;;;;;5070967;28;1472;-75
2021/12/04 13:59:40;;;;;;;;;;;;;;;;;;5065263;28;1171;-74
2021/12/04 14:02:06;;;;;;;;;;;;;;;;;;5076928;28;1317;-73
2021/12/04 14:04:32;;;;;;;;;;;;;;;;;;5062103;28;1187;-74
2021/12/04 14:06:58;;;;;;;;;;;;;;;;;;5103538;28;1143;-75
2021/12/04 14:09:30;;;;;;;;;;;;;;;;;;5094376;28;1219;-75
2021/12/04 14:11:56;;;;;;;;;;;;;;;;;;5070540;28;1898;-75
2021/12/04 14:14:23;;;;;;;;;;;;;;;;;;5058691;28;1214;-76
2021/12/04 14:16:53;;;;;;;;;;;;;;;;;;5080838;28;1267;-75
2021/12/04 14:19:23;;;;;;;;;;;;;;;;;;5074855;28;1094;-74
2021/12/04 14:21:53;;;;;;;;;;;;;;;;;;5078662;28;1168;-73
2021/12/04 14:24:27;;;;;;;;;;;;;;;;;;5072598;28;1325;-74
2021/12/04 14:26:57;;;;;;;;;;;;;;;;;;5080917;28;1156;-75
2021/12/04 14:29:25;;;;;;;;;;;;;;;;;;5063832;28;1127;-75
2021/12/04 14:31:51;;;;;;;;;;;;;;;;;;5091957;28;1910;-75
2021/12/04 14:34:24;;;;;;;;;;;;;;;;;;5083862;28;1222;-75
2021/12/04 14:37:12;;;;;;;;;;;;;;;;;;5105916;28;1285;-75
2021/12/04 14:39:47;;;;;;;;;;;;;;;;;;5079248;28;1116;-76
2021/12/04 14:42:22;;;;;;;;;;;;;;;;;;5081469;28;1246;-75
2021/12/04 14:44:52;;;;;;;;;;;;;;;;;;5075902;28;1539;-75
2021/12/04 14:47:18;;;;;;;;;;;;;;;;;;5079444;28;1273;-78
2021/12/04 14:49:45;;;;;;;;;;;;;;;;;;5105194;28;1100;-78
2021/12/04 14:52:18;;;;;;;;;;;;;;;;;;5071332;28;1983;-79
2021/12/04 14:54:44;;;;;;;;;;;;;;;;;;5082024;28;1129;-78
2021/12/04 14:57:19;;;;;;;;;;;;;;;;;;5063602;28;1180;-78
2021/12/04 14:59:45;;;;;;;;;;;;;;;;;;5098187;28;1127;-78
2021/12/04 15:02:15;;;;;;;;;;;;;;;;;;5048918;28;1290;-78
2021/12/04 15:04:40;;;;;;;;;;;;;;;;;;5064485;28;1222;-78
2021/12/04 15:07:06;;;;;;;;;;;;;;;;;;5064760;28;1188;-76
2021/12/04 15:09:31;;;;;;;;;;;;;;;;;;5081962;28;1128;-77
2021/12/04 15:11:59;;;;;;;;;;;;;;;;;;5064240;28;1890;-77
2021/12/04 15:14:32;;;;;;;;;;;;;;;;;;5048396;28;1279;-78
2021/12/04 15:17:04;;;;;;;;;;;;;;;;;;5082230;28;1065;-78
2021/12/04 15:19:43;;;;;;;;;;;;;;;;;;5058793;28;1210;-78
2021/12/04 15:22:21;;;;;;;;;;;;;;;;;;5102487;28;1024;-77
2021/12/04 15:24:47;;;;;;;;;;;;;;;;;;5075250;28;1346;-77
2021/12/04 15:27:16;;;;;;;;;;;;;;;;;;5068196;28;1211;-77
2021/12/04 15:29:44;;;;;;;;;;;;;;;;;;5102622;28;1211;-78
2021/12/04 15:32:13;;;;;;;;;;;;;;;;;;5079413;28;1902;-77
2021/12/04 15:34:41;;;;;;;;;;;;;;;;;;5064487;28;1310;-77
2021/12/04 15:37:07;;;;;;;;;;;;;;;;;;5064500;28;1210;-78
2021/12/04 15:39:36;;;;;;;;;;;;;;;;;;5044836;28;1520;-78
2021/12/04 15:47:22;;;;;;;;;;;;;;;;;;5082610;28;1071;-77
2021/12/04 15:50:09;;;;;;;;;;;;;;;;;;5104050;28;1091;-77
2021/12/04 15:55:12;;;;;;;;;;;;;;;;;;5096846;28;1277;-79
2021/12/04 15:57:37;;;;;;;;;;;;;;;;;;5073187;28;1687;-78
2021/12/04 16:00:13;;;;;;;;;;;;;;;;;;5077493;28;1243;-78
2021/12/04 16:02:44;;;;;;;;;;;;;;;;;;5086078;28;1227;-78
2021/12/04 16:05:12;;;;;;;;;;;;;;;;;;5069949;28;1226;-77
2021/12/04 16:07:38;;;;;;;;;;;;;;;;;;5065216;28;1194;-78
2021/12/04 16:10:23;;;;;;;;;;;;;;;;;;5057295;28;1341;-79
2021/12/04 16:12:53;;;;;;;;;;;;;;;;;;5065285;28;1972;-77
2021/12/04 16:15:20;;;;;;;;;;;;;;;;;;5060414;28;1119;-77
2021/12/04 16:17:46;;;;;;;;;;;;;;;;;;5067509;28;1285;-77
2021/12/04 16:20:13;;;;;;;;;;;;;;;;;;5064368;28;1145;-77
2021/12/04 16:22:40;;;;;;;;;;;;;;;;;;5104235;28;1104;-78
2021/12/04 16:25:20;;;;;;;;;;;;;;;;;;5057405;28;1250;-77
2021/12/04 16:28:10;;;;;;;;;;;;;;;;;;5084645;28;1131;-77
2021/12/04 16:36:19;;;;;;;;;;;;;;;;;;5102458;28;1178;-78
2021/12/04 16:38:32;;;;;;;;;;;;;;;;;;5100702;28;1127;-78
2021/12/04 16:40:58;;;;;;;;;;;;;;;;;;5063366;28;1324;-79
2021/12/04 16:43:36;;;;;;;;;;;;;;;;;;5094643;28;1144;-78
2021/12/04 16:46:07;;;;;;;;;;;;;;;;;;5081541;28;1589;-78
2021/12/04 16:48:37;;;;;;;;;;;;;;;;;;5083824;28;1127;-78
2021/12/04 16:58:50;;;;;;;;;;;;;;;;;;5080140;28;1060;-79
2021/12/04 17:01:16;;;;;;;;;;;;;;;;;;5061817;28;1218;-78
2021/12/04 17:03:41;;;;;;;;;;;;;;;;;;5082204;28;1164;-79
2021/12/04 17:06:07;;;;;;;;;;;;;;;;;;5062166;28;1277;-79
2021/12/04 17:08:33;;;;;;;;;;;;;;;;;;5067484;28;1141;-77
2021/12/04 17:10:58;;;;;;;;;;;;;;;;;;5081523;28;1885;-76
2021/12/04 17:13:23;;;;;;;;;;;;;;;;;;5067909;28;1188;-79
2021/12/04 17:15:49;;;;;;;;;;;;;;;;;;5099597;28;1163;-77
2021/12/04 17:18:16;;;;;;;;;;;;;;;;;;5085225;28;1196;-78
2021/12/04 17:20:45;;;;;;;;;;;;;;;;;;5092677;28;1131;-77
2021/12/04 17:23:11;;;;;;;;;;;;;;;;;;5048333;28;1164;-77
2021/12/04 17:25:38;;;;;;;;;;;;;;;;;;5060001;28;1195;-77
2021/12/04 17:28:04;;;;;;;;;;;;;;;;;;5083356;28;1163;-78
2021/12/04 17:30:29;;;;;;;;;;;;;;;;;;5058452;28;1422;-77
2021/12/04 17:32:55;;;;;;;;;;;;;;;;;;5081702;28;1894;-78
2021/12/04 17:35:21;;;;;;;;;;;;;;;;;;5082237;28;1023;-78
2021/12/04 17:37:46;;;;;;;;;;;;;;;;;;5065373;28;1262;-79
2021/12/04 17:40:12;;;;;;;;;;;;;;;;;;5058612;28;1297;-78
2021/12/04 17:42:38;;;;;;;;;;;;;;;;;;5049509;28;1448;-79
2021/12/04 17:45:05;;;;;;;;;;;;;;;;;;5061492;28;1225;-79
2021/12/04 17:47:31;;;;;;;;;;;;;;;;;;5064401;28;1436;-77
2021/12/04 17:49:57;;;;;;;;;;;;;;;;;;5064603;28;1399;-77
2021/12/04 17:52:23;;;;;;;;;;;;;;;;;;5079099;28;1967;-77
2021/12/04 17:54:48;;;;;;;;;;;;;;;;;;5091420;28;1155;-78
2021/12/04 17:57:13;;;;;;;;;;;;;;;;;;5082909;28;1140;-78
2021/12/04 17:59:39;;;;;;;;;;;;;;;;;;5079493;28;1470;-78
2021/12/04 18:02:09;;;;;;;;;;;;;;;;;;5066064;28;1191;-78
2021/12/04 18:04:38;;;;;;;;;;;;;;;;;;5061313;28;1211;-78
2021/12/04 18:07:07;;;;;;;;;;;;;;;;;;5063833;28;1227;-78
2021/12/04 18:09:34;;;;;;;;;;;;;;;;;;5080557;28;1125;-78
2021/12/04 18:12:11;;;;;;;;;;;;;;;;;;5064242;28;1886;-78
2021/12/04 18:14:38;;;;;;;;;;;;;;;;;;5079583;28;1322;-79
2021/12/04 18:17:03;;;;;;;;;;;;;;;;;;5082340;28;1281;-78
2021/12/04 18:19:29;;;;;;;;;;;;;;;;;;5063884;28;1239;-78
2021/12/04 18:21:56;;;;;;;;;;;;;;;;;;5058259;28;1289;-78
2021/12/04 18:24:22;;;;;;;;;;;;;;;;;;5081080;28;1175;-78
2021/12/04 18:26:48;;;;;;;;;;;;;;;;;;5100477;28;1325;-77
2021/12/04 18:29:13;;;;;;;;;;;;;;;;;;5081518;28;1211;-78
2021/12/04 18:31:41;;;;;;;;;;;;;;;;;;5055902;28;1910;-78
2021/12/04 18:34:07;;;;;;;;;;;;;;;;;;5055584;28;1325;-78
2021/12/04 18:36:33;;;;;;;;;;;;;;;;;;5065557;28;1203;-79
2021/12/04 18:38:58;;;;;;;;;;;;;;;;;;5065999;28;1473;-79
2021/12/04 18:41:24;;;;;;;;;;;;;;;;;;5060745;28;1342;-78
2021/12/04 18:43:55;;;;;;;;;;;;;;;;;;5048395;28;1215;-78
2021/12/04 18:46:21;;;;;;;;;;;;;;;;;;5066761;28;1183;-78
2021/12/04 18:48:47;;;;;;;;;;;;;;;;;;5057999;28;1156;-78
2021/12/04 18:51:12;;;;;;;;;;;;;;;;;;5102841;28;1914;-78
2021/12/04 18:53:41;;;;;;;;;;;;;;;;;;5076887;28;1286;-77
2021/12/04 18:56:07;;;;;;;;;;;;;;;;;;5081567;28;1351;-77
2021/12/04 18:58:33;;;;;;;;;;;;;;;;;;5085523;28;1181;-76
2021/12/04 19:00:58;;;;;;;;;;;;;;;;;;5072411;28;1511;-77
2021/12/04 19:03:24;;;;;;;;;;;;;;;;;;5084074;28;1214;-77
2021/12/04 19:05:51;;;;;;;;;;;;;;;;;;5065941;28;1207;-78
2021/12/04 19:08:18;;;;;;;;;;;;;;;;;;5050186;28;1640;-78
2021/12/04 19:10:44;;;;;;;;;;;;;;;;;;5052559;28;1188;-77
2021/12/04 19:13:10;;;;;;;;;;;;;;;;;;5105945;28;1964;-77
2021/12/04 19:15:37;;;;;;;;;;;;;;;;;;5080095;28;1345;-77
2021/12/04 19:18:05;;;;;;;;;;;;;;;;;;5079531;28;1356;-77
2021/12/04 19:20:31;;;;;;;;;;;;;;;;;;5062668;28;1310;-79
2021/12/04 19:22:57;;;;;;;;;;;;;;;;;;5084764;28;1152;-79
2021/12/04 19:25:25;;;;;;;;;;;;;;;;;;5057573;28;1169;-77
2021/12/04 19:27:51;;;;;;;;;;;;;;;;;;5087387;28;1313;-78
2021/12/04 19:30:21;;;;;;;;;;;;;;;;;;5078470;28;1182;-77
2021/12/04 19:32:54;;;;;;;;;;;;;;;;;;5068421;28;1921;-77
2021/12/04 19:51:21;;;;;;;;;;;;;;;;;;5090937;28;1910;-77
2021/12/04 19:54:01;;;;;;;;;;;;;;;;;;5079272;28;1223;-78
2021/12/04 19:56:40;;;;;;;;;;;;;;;;;;5078182;28;1301;-78
2021/12/04 19:59:11;;;;;;;;;;;;;;;;;;5099105;28;1091;-78
2021/12/04 20:02:04;;;;;;;;;;;;;;;;;;5102464;28;1115;-79
2021/12/04 20:07:13;;;;;;;;;;;;;;;;;;5104188;28;1242;-79
2021/12/04 20:10:04;;;;;;;;;;;;;;;;;;5077841;28;1450;-79
2021/12/04 20:15:17;;;;;;;;;;;;;;;;;;5080588;28;976;-79
2021/12/04 20:17:43;;;;;;;;;;;;;;;;;;5080713;28;1218;-78
2021/12/04 20:20:09;;;;;;;;;;;;;;;;;;5062959;28;1318;-78
2021/12/04 20:22:34;;;;;;;;;;;;;;;;;;5082061;28;1306;-78
2021/12/04 20:25:00;;;;;;;;;;;;;;;;;;5095287;28;1210;-78
2021/12/04 20:27:34;;;;;;;;;;;;;;;;;;5066681;28;1176;-77
2021/12/04 20:32:51;;;;;;;;;;;;;;;;;;5088731;28;1902;-78
2021/12/04 21:07:39;;;;;;;;;;;;;;;;;;5086578;28;1059;-77
2021/12/04 21:44:00;;;;;;;;;;;;;;;;;;5089230;28;1035;-75
2021/12/04 21:51:20;;;;;;;;;;;;;;;;;;5093860;28;1917;-78
2021/12/04 21:53:46;;;;;;;;;;;;;;;;;;5097812;28;1155;-77
2021/12/04 22:08:58;;;;;;;;;;;;;;;;;;5101784;28;1127;-77
2021/12/04 22:09:49;;;;;;;;;;;;;;;;;;5076677;28;1043;-76
2021/12/04 22:12:23;;;;;;;;;;;;;;;;;;5072126;28;1893;-76
2021/12/04 22:58:19;;;;;;;;;;;;;;;;;;5096684;28;1151;-76
2021/12/04 23:01:00;;;;;;;;;;;;;;;;;;5067458;28;1373;-76
2021/12/04 23:12:10;;;;;;;;;;;;;;;;;;5087334;28;1890;-76
2021/12/04 23:14:40;;;;;;;;;;;;;;;;;;5075271;28;1601;-76
2021/12/04 23:35:55;;;;;;;;;;;;;;;;;;5085024;28;1150;-77